Nenana Municipal Airport
PANN : now visible

Aeroporto :











RITROVATECI SU...

 
LOGIN :

Iscrizione | Disclaimer

   EN    FR    IT 

 









Sommario :    VFR   VFR Marginale   IFR   IFR Intensivo   IFR Molto Intensivo
Visibilità : 
Base nubi : 
>= 8 km
>= 3000ft
5 / 8 km
1000 / 3000 ft
1500m / 5 km
500 / 1000 ft
800 / 1500m
200 / 500 ft
< 800m
< 200 ft
Simboli :   Temporali  Nebbia  Neve Forte  Precipitazioni Forti  Vento > 20 kt






- Altitudine del aeroporto : 362 ft
- Codice IATA : ENN


PANN - Nenana Municipal

ULTIMO METAR :
  • 011953Z AUTO VRB04KT 10SM FEW070 OVC120 16/09 A2952 RMK AO2 RAE05 SLP002 P0000 T01610094 TSNO

METARs OBSOLETI :
  • 011853Z AUTO 02003KT 9SM -RA FEW055 BKN075 OVC090 15/09 A2953 RMK AO2 RAB45 SLP004 P0000 T01500094 TSNO
  • 011753Z AUTO 00000KT 10SM BKN070 BKN085 OVC110 14/10 A2953 RMK AO2 SLP003 T01440100 10144 20094 53004 TSNO $
  • 011653Z AUTO 00000KT 10SM FEW120 14/09 A2952 RMK AO2 SLP001 T01390089 TSNO $

TAF N/A
FIR PAZA / America del Nord



MetMap, La meteo Aeronautica in un colpo d'occhio ! - Copyright ORBIFLY Dicembre 2007 - Disclaimer

ORBIFLY MET'MAP TEAM :

Programmazione e sviluppo : Alexandra Zaïnal
Concezione : Baudouin d'Aumeries
Aiuto per la programmazione : Marc-Olivier Méhu
Supporto tecnico e logistico : Manuel Goepfert
Aiuto per la traduzione : Arnaldo La Scala

Contatto : metmap@orbifly.com




FONTI E CREDITI :

   NOAA       Earth
Advisory